sensor_id;sensor_type;location;lat;lon;timestamp;P1;durP1;ratioP1;P2;durP2;ratioP2
12120;SDS011;6124;59.460;17.908;2024-01-27T00:00:35;4.57;;;2.83;;
12120;SDS011;6124;59.460;17.908;2024-01-27T00:03:02;7.27;;;3.47;;
12120;SDS011;6124;59.460;17.908;2024-01-27T00:05:30;7.43;;;3.00;;
12120;SDS011;6124;59.460;17.908;2024-01-27T00:07:57;6.63;;;3.20;;
12120;SDS011;6124;59.460;17.908;2024-01-27T00:10:25;6.93;;;3.50;;
12120;SDS011;6124;59.460;17.908;2024-01-27T00:12:54;5.83;;;3.20;;
12120;SDS011;6124;59.460;17.908;2024-01-27T00:15:21;6.03;;;3.50;;
12120;SDS011;6124;59.460;17.908;2024-01-27T00:17:49;6.73;;;3.43;;
12120;SDS011;6124;59.460;17.908;2024-01-27T00:20:16;6.50;;;3.50;;
12120;SDS011;6124;59.460;17.908;2024-01-27T00:22:43;7.30;;;3.70;;
12120;SDS011;6124;59.460;17.908;2024-01-27T00:25:11;5.90;;;3.90;;
12120;SDS011;6124;59.460;17.908;2024-01-27T00:27:38;7.83;;;3.80;;
12120;SDS011;6124;59.460;17.908;2024-01-27T00:30:08;5.57;;;3.23;;
12120;SDS011;6124;59.460;17.908;2024-01-27T00:32:36;5.30;;;3.40;;
12120;SDS011;6124;59.460;17.908;2024-01-27T00:35:04;5.17;;;3.47;;
12120;SDS011;6124;59.460;17.908;2024-01-27T00:37:31;7.13;;;3.57;;
12120;SDS011;6124;59.460;17.908;2024-01-27T00:39:59;5.83;;;4.10;;
12120;SDS011;6124;59.460;17.908;2024-01-27T00:42:26;7.27;;;3.90;;
12120;SDS011;6124;59.460;17.908;2024-01-27T00:44:54;6.60;;;4.10;;
12120;SDS011;6124;59.460;17.908;2024-01-27T00:47:22;8.00;;;4.07;;
12120;SDS011;6124;59.460;17.908;2024-01-27T00:49:50;7.90;;;4.20;;
12120;SDS011;6124;59.460;17.908;2024-01-27T00:52:19;7.57;;;4.40;;
12120;SDS011;6124;59.460;17.908;2024-01-27T00:54:46;7.97;;;4.60;;
12120;SDS011;6124;59.460;17.908;2024-01-27T00:57:14;7.53;;;4.60;;
12120;SDS011;6124;59.460;17.908;2024-01-27T00:59:41;11.87;;;6.33;;
12120;SDS011;6124;59.460;17.908;2024-01-27T01:02:08;9.37;;;5.70;;
12120;SDS011;6124;59.460;17.908;2024-01-27T01:04:37;11.60;;;5.80;;
12120;SDS011;6124;59.460;17.908;2024-01-27T01:07:06;9.60;;;5.87;;
12120;SDS011;6124;59.460;17.908;2024-01-27T01:09:33;9.63;;;5.30;;
12120;SDS011;6124;59.460;17.908;2024-01-27T01:12:01;10.00;;;5.80;;
12120;SDS011;6124;59.460;17.908;2024-01-27T01:14:28;8.37;;;5.40;;
12120;SDS011;6124;59.460;17.908;2024-01-27T01:16:56;7.83;;;5.13;;
12120;SDS011;6124;59.460;17.908;2024-01-27T01:19:23;9.80;;;5.67;;
12120;SDS011;6124;59.460;17.908;2024-01-27T01:21:53;10.37;;;5.53;;
12120;SDS011;6124;59.460;17.908;2024-01-27T01:24:20;9.13;;;5.83;;
12120;SDS011;6124;59.460;17.908;2024-01-27T01:26:48;8.43;;;5.73;;
12120;SDS011;6124;59.460;17.908;2024-01-27T01:29:15;8.30;;;5.30;;
12120;SDS011;6124;59.460;17.908;2024-01-27T01:31:43;7.10;;;5.07;;
12120;SDS011;6124;59.460;17.908;2024-01-27T01:34:10;7.90;;;4.80;;
12120;SDS011;6124;59.460;17.908;2024-01-27T01:36:37;8.67;;;5.40;;
12120;SDS011;6124;59.460;17.908;2024-01-27T01:39:06;9.73;;;5.27;;
12120;SDS011;6124;59.460;17.908;2024-01-27T01:41:34;8.80;;;5.17;;
12120;SDS011;6124;59.460;17.908;2024-01-27T01:44:01;8.33;;;4.83;;
12120;SDS011;6124;59.460;17.908;2024-01-27T01:46:29;7.03;;;4.50;;
12120;SDS011;6124;59.460;17.908;2024-01-27T01:48:56;8.80;;;4.87;;
12120;SDS011;6124;59.460;17.908;2024-01-27T01:51:24;8.17;;;4.93;;
12120;SDS011;6124;59.460;17.908;2024-01-27T01:53:51;8.57;;;5.07;;
12120;SDS011;6124;59.460;17.908;2024-01-27T01:56:22;7.30;;;4.37;;
12120;SDS011;6124;59.460;17.908;2024-01-27T01:58:50;6.87;;;4.13;;
12120;SDS011;6124;59.460;17.908;2024-01-27T02:01:18;8.33;;;4.53;;
12120;SDS011;6124;59.460;17.908;2024-01-27T02:03:51;7.80;;;4.67;;
12120;SDS011;6124;59.460;17.908;2024-01-27T02:06:18;9.00;;;4.47;;
12120;SDS011;6124;59.460;17.908;2024-01-27T02:08:46;8.73;;;5.07;;
12120;SDS011;6124;59.460;17.908;2024-01-27T02:11:14;7.20;;;4.07;;
12120;SDS011;6124;59.460;17.908;2024-01-27T02:13:42;6.27;;;3.90;;
12120;SDS011;6124;59.460;17.908;2024-01-27T02:16:10;7.40;;;4.47;;
12120;SDS011;6124;59.460;17.908;2024-01-27T02:18:38;7.77;;;4.20;;
12120;SDS011;6124;59.460;17.908;2024-01-27T02:21:05;5.67;;;3.30;;
12120;SDS011;6124;59.460;17.908;2024-01-27T02:23:32;6.33;;;3.57;;
12120;SDS011;6124;59.460;17.908;2024-01-27T02:26:01;5.10;;;3.57;;
12120;SDS011;6124;59.460;17.908;2024-01-27T02:28:29;5.27;;;3.07;;
12120;SDS011;6124;59.460;17.908;2024-01-27T02:30:58;4.20;;;2.97;;
12120;SDS011;6124;59.460;17.908;2024-01-27T02:33:26;5.13;;;3.20;;
12120;SDS011;6124;59.460;17.908;2024-01-27T02:35:53;4.63;;;3.03;;
12120;SDS011;6124;59.460;17.908;2024-01-27T02:38:20;4.47;;;2.83;;
12120;SDS011;6124;59.460;17.908;2024-01-27T02:40:48;2.60;;;2.30;;
12120;SDS011;6124;59.460;17.908;2024-01-27T02:43:17;2.80;;;2.30;;
12120;SDS011;6124;59.460;17.908;2024-01-27T02:45:44;3.13;;;2.40;;
12120;SDS011;6124;59.460;17.908;2024-01-27T02:48:11;2.87;;;2.10;;
12120;SDS011;6124;59.460;17.908;2024-01-27T02:50:39;2.83;;;2.20;;
12120;SDS011;6124;59.460;17.908;2024-01-27T02:53:06;2.73;;;2.40;;
12120;SDS011;6124;59.460;17.908;2024-01-27T02:55:34;2.43;;;2.00;;
12120;SDS011;6124;59.460;17.908;2024-01-27T02:58:01;2.87;;;2.50;;
12120;SDS011;6124;59.460;17.908;2024-01-27T03:00:30;2.23;;;1.90;;
12120;SDS011;6124;59.460;17.908;2024-01-27T03:02:57;2.50;;;2.00;;
12120;SDS011;6124;59.460;17.908;2024-01-27T03:05:25;2.30;;;2.10;;
12120;SDS011;6124;59.460;17.908;2024-01-27T03:07:52;1.93;;;1.73;;
12120;SDS011;6124;59.460;17.908;2024-01-27T03:10:19;2.00;;;1.80;;
12120;SDS011;6124;59.460;17.908;2024-01-27T03:12:47;1.50;;;1.40;;
12120;SDS011;6124;59.460;17.908;2024-01-27T03:15:14;1.63;;;1.23;;
12120;SDS011;6124;59.460;17.908;2024-01-27T03:17:43;1.70;;;1.30;;
12120;SDS011;6124;59.460;17.908;2024-01-27T03:20:11;1.90;;;1.13;;
12120;SDS011;6124;59.460;17.908;2024-01-27T03:22:38;1.20;;;1.10;;
12120;SDS011;6124;59.460;17.908;2024-01-27T03:25:07;1.30;;;1.17;;
12120;SDS011;6124;59.460;17.908;2024-01-27T03:27:35;1.77;;;1.13;;
12120;SDS011;6124;59.460;17.908;2024-01-27T03:30:03;1.10;;;1.00;;
12120;SDS011;6124;59.460;17.908;2024-01-27T03:32:31;1.13;;;1.03;;
12120;SDS011;6124;59.460;17.908;2024-01-27T03:35:00;1.20;;;1.10;;
12120;SDS011;6124;59.460;17.908;2024-01-27T03:37:27;1.77;;;1.00;;
12120;SDS011;6124;59.460;17.908;2024-01-27T03:39:55;0.93;;;0.90;;
12120;SDS011;6124;59.460;17.908;2024-01-27T03:42:22;1.10;;;0.93;;
12120;SDS011;6124;59.460;17.908;2024-01-27T03:44:50;1.17;;;1.07;;
12120;SDS011;6124;59.460;17.908;2024-01-27T03:47:18;1.43;;;0.90;;
12120;SDS011;6124;59.460;17.908;2024-01-27T03:49:44;0.90;;;0.90;;
12120;SDS011;6124;59.460;17.908;2024-01-27T03:52:13;0.97;;;0.93;;
12120;SDS011;6124;59.460;17.908;2024-01-27T03:54:40;1.87;;;1.20;;
12120;SDS011;6124;59.460;17.908;2024-01-27T03:57:08;1.47;;;1.00;;
12120;SDS011;6124;59.460;17.908;2024-01-27T03:59:35;1.10;;;1.00;;
12120;SDS011;6124;59.460;17.908;2024-01-27T04:02:03;1.30;;;1.20;;
12120;SDS011;6124;59.460;17.908;2024-01-27T04:04:31;1.30;;;1.20;;
12120;SDS011;6124;59.460;17.908;2024-01-27T04:06:59;1.00;;;0.90;;
12120;SDS011;6124;59.460;17.908;2024-01-27T04:09:28;1.20;;;1.10;;
12120;SDS011;6124;59.460;17.908;2024-01-27T04:11:56;0.93;;;0.90;;
12120;SDS011;6124;59.460;17.908;2024-01-27T04:14:23;1.30;;;1.20;;
12120;SDS011;6124;59.460;17.908;2024-01-27T04:16:51;1.47;;;1.10;;
12120;SDS011;6124;59.460;17.908;2024-01-27T04:19:18;1.10;;;1.00;;
12120;SDS011;6124;59.460;17.908;2024-01-27T04:21:46;1.20;;;1.10;;
12120;SDS011;6124;59.460;17.908;2024-01-27T04:24:13;1.93;;;1.20;;
12120;SDS011;6124;59.460;17.908;2024-01-27T04:26:42;1.00;;;0.90;;
12120;SDS011;6124;59.460;17.908;2024-01-27T04:29:10;1.73;;;1.20;;
12120;SDS011;6124;59.460;17.908;2024-01-27T04:31:40;1.20;;;1.00;;
12120;SDS011;6124;59.460;17.908;2024-01-27T04:34:08;1.20;;;1.10;;
12120;SDS011;6124;59.460;17.908;2024-01-27T04:36:35;1.13;;;1.03;;
12120;SDS011;6124;59.460;17.908;2024-01-27T04:39:03;1.57;;;1.00;;
12120;SDS011;6124;59.460;17.908;2024-01-27T04:41:30;1.10;;;1.00;;
12120;SDS011;6124;59.460;17.908;2024-01-27T04:43:59;1.23;;;1.10;;
12120;SDS011;6124;59.460;17.908;2024-01-27T04:46:27;1.97;;;1.10;;
12120;SDS011;6124;59.460;17.908;2024-01-27T04:48:54;1.10;;;1.00;;
12120;SDS011;6124;59.460;17.908;2024-01-27T04:51:22;1.20;;;1.00;;
12120;SDS011;6124;59.460;17.908;2024-01-27T04:53:49;1.00;;;1.00;;
12120;SDS011;6124;59.460;17.908;2024-01-27T04:56:17;1.30;;;1.07;;
12120;SDS011;6124;59.460;17.908;2024-01-27T04:58:44;1.27;;;0.90;;
12120;SDS011;6124;59.460;17.908;2024-01-27T05:01:13;1.40;;;1.10;;
12120;SDS011;6124;59.460;17.908;2024-01-27T05:03:41;1.80;;;0.97;;
12120;SDS011;6124;59.460;17.908;2024-01-27T05:06:08;1.30;;;1.20;;
12120;SDS011;6124;59.460;17.908;2024-01-27T05:08:36;2.43;;;1.10;;
12120;SDS011;6124;59.460;17.908;2024-01-27T05:11:04;1.00;;;0.90;;
12120;SDS011;6124;59.460;17.908;2024-01-27T05:13:31;1.00;;;0.90;;
12120;SDS011;6124;59.460;17.908;2024-01-27T05:15:58;1.23;;;0.90;;
12120;SDS011;6124;59.460;17.908;2024-01-27T05:18:27;1.50;;;1.20;;
12120;SDS011;6124;59.460;17.908;2024-01-27T05:20:55;1.10;;;1.00;;
12120;SDS011;6124;59.460;17.908;2024-01-27T05:23:22;2.07;;;1.10;;
12120;SDS011;6124;59.460;17.908;2024-01-27T05:25:49;1.40;;;1.00;;
12120;SDS011;6124;59.460;17.908;2024-01-27T05:28:17;1.37;;;1.27;;
12120;SDS011;6124;59.460;17.908;2024-01-27T05:30:44;1.20;;;1.10;;
12120;SDS011;6124;59.460;17.908;2024-01-27T05:33:11;1.10;;;1.00;;
12120;SDS011;6124;59.460;17.908;2024-01-27T05:35:40;1.33;;;1.00;;
12120;SDS011;6124;59.460;17.908;2024-01-27T05:38:08;1.60;;;1.10;;
12120;SDS011;6124;59.460;17.908;2024-01-27T05:40:35;1.10;;;1.00;;
12120;SDS011;6124;59.460;17.908;2024-01-27T05:43:03;1.20;;;1.00;;
12120;SDS011;6124;59.460;17.908;2024-01-27T05:45:30;1.57;;;1.20;;
12120;SDS011;6124;59.460;17.908;2024-01-27T05:47:58;1.60;;;1.20;;
12120;SDS011;6124;59.460;17.908;2024-01-27T05:50:25;1.67;;;1.03;;
12120;SDS011;6124;59.460;17.908;2024-01-27T05:52:56;1.97;;;1.00;;
12120;SDS011;6124;59.460;17.908;2024-01-27T05:55:24;2.20;;;1.20;;
12120;SDS011;6124;59.460;17.908;2024-01-27T05:57:51;1.37;;;1.10;;
12120;SDS011;6124;59.460;17.908;2024-01-27T06:00:20;1.20;;;1.10;;
12120;SDS011;6124;59.460;17.908;2024-01-27T06:02:47;2.03;;;1.10;;
12120;SDS011;6124;59.460;17.908;2024-01-27T06:05:15;1.50;;;1.00;;
12120;SDS011;6124;59.460;17.908;2024-01-27T06:07:42;1.23;;;1.00;;
12120;SDS011;6124;59.460;17.908;2024-01-27T06:10:13;1.37;;;1.03;;
12120;SDS011;6124;59.460;17.908;2024-01-27T06:12:40;1.00;;;0.80;;
12120;SDS011;6124;59.460;17.908;2024-01-27T06:15:08;1.17;;;1.03;;
12120;SDS011;6124;59.460;17.908;2024-01-27T06:17:36;1.63;;;1.20;;
12120;SDS011;6124;59.460;17.908;2024-01-27T06:20:03;1.43;;;1.00;;
12120;SDS011;6124;59.460;17.908;2024-01-27T06:22:31;2.13;;;0.97;;
12120;SDS011;6124;59.460;17.908;2024-01-27T06:24:59;1.27;;;1.00;;
12120;SDS011;6124;59.460;17.908;2024-01-27T06:27:27;2.03;;;1.10;;
12120;SDS011;6124;59.460;17.908;2024-01-27T06:29:55;1.30;;;1.10;;
12120;SDS011;6124;59.460;17.908;2024-01-27T06:32:22;1.53;;;1.00;;
12120;SDS011;6124;59.460;17.908;2024-01-27T06:34:50;2.23;;;1.10;;
12120;SDS011;6124;59.460;17.908;2024-01-27T06:37:17;1.33;;;1.00;;
12120;SDS011;6124;59.460;17.908;2024-01-27T06:39:45;1.33;;;1.07;;
12120;SDS011;6124;59.460;17.908;2024-01-27T06:42:12;1.47;;;1.07;;
12120;SDS011;6124;59.460;17.908;2024-01-27T06:44:41;1.23;;;1.00;;
12120;SDS011;6124;59.460;17.908;2024-01-27T06:47:08;1.00;;;0.83;;
12120;SDS011;6124;59.460;17.908;2024-01-27T06:49:35;1.57;;;0.90;;
12120;SDS011;6124;59.460;17.908;2024-01-27T06:52:03;1.10;;;1.00;;
12120;SDS011;6124;59.460;17.908;2024-01-27T06:54:30;1.53;;;1.17;;
12120;SDS011;6124;59.460;17.908;2024-01-27T06:56:58;3.03;;;1.17;;
12120;SDS011;6124;59.460;17.908;2024-01-27T06:59:26;1.53;;;1.37;;
12120;SDS011;6124;59.460;17.908;2024-01-27T07:01:55;2.33;;;0.83;;
12120;SDS011;6124;59.460;17.908;2024-01-27T07:04:22;2.27;;;1.00;;
12120;SDS011;6124;59.460;17.908;2024-01-27T07:06:50;1.33;;;1.00;;
12120;SDS011;6124;59.460;17.908;2024-01-27T07:09:17;1.37;;;1.10;;
12120;SDS011;6124;59.460;17.908;2024-01-27T07:11:45;1.67;;;1.10;;
12120;SDS011;6124;59.460;17.908;2024-01-27T07:14:12;1.03;;;0.90;;
12120;SDS011;6124;59.460;17.908;2024-01-27T07:16:40;2.97;;;1.10;;
12120;SDS011;6124;59.460;17.908;2024-01-27T07:19:08;1.17;;;1.00;;
12120;SDS011;6124;59.460;17.908;2024-01-27T07:21:36;1.77;;;1.30;;
12120;SDS011;6124;59.460;17.908;2024-01-27T07:24:04;1.87;;;1.30;;
12120;SDS011;6124;59.460;17.908;2024-01-27T07:26:31;1.97;;;1.00;;
12120;SDS011;6124;59.460;17.908;2024-01-27T07:28:59;1.90;;;1.27;;
12120;SDS011;6124;59.460;17.908;2024-01-27T07:31:26;3.80;;;1.30;;
12120;SDS011;6124;59.460;17.908;2024-01-27T07:33:53;1.93;;;1.50;;
12120;SDS011;6124;59.460;17.908;2024-01-27T07:36:23;2.70;;;1.40;;
12120;SDS011;6124;59.460;17.908;2024-01-27T07:38:51;2.87;;;1.40;;
12120;SDS011;6124;59.460;17.908;2024-01-27T07:41:18;3.67;;;1.70;;
12120;SDS011;6124;59.460;17.908;2024-01-27T07:43:46;2.53;;;1.57;;
12120;SDS011;6124;59.460;17.908;2024-01-27T07:46:13;1.50;;;1.23;;
12120;SDS011;6124;59.460;17.908;2024-01-27T07:48:40;4.20;;;1.70;;
12120;SDS011;6124;59.460;17.908;2024-01-27T07:51:08;1.43;;;1.27;;
12120;SDS011;6124;59.460;17.908;2024-01-27T07:53:36;2.40;;;1.30;;
12120;SDS011;6124;59.460;17.908;2024-01-27T07:56:04;2.23;;;1.30;;
12120;SDS011;6124;59.460;17.908;2024-01-27T07:58:31;3.33;;;1.50;;
12120;SDS011;6124;59.460;17.908;2024-01-27T08:00:59;3.83;;;1.33;;
12120;SDS011;6124;59.460;17.908;2024-01-27T08:03:26;4.43;;;1.40;;
12120;SDS011;6124;59.460;17.908;2024-01-27T08:05:54;2.37;;;1.50;;
12120;SDS011;6124;59.460;17.908;2024-01-27T08:08:22;3.17;;;1.20;;
12120;SDS011;6124;59.460;17.908;2024-01-27T08:10:51;2.00;;;1.23;;
12120;SDS011;6124;59.460;17.908;2024-01-27T08:13:18;4.27;;;1.10;;
12120;SDS011;6124;59.460;17.908;2024-01-27T08:15:45;6.13;;;1.37;;
12120;SDS011;6124;59.460;17.908;2024-01-27T08:18:13;2.20;;;1.20;;
12120;SDS011;6124;59.460;17.908;2024-01-27T08:20:40;4.30;;;1.30;;
12120;SDS011;6124;59.460;17.908;2024-01-27T08:23:07;3.80;;;1.27;;
12120;SDS011;6124;59.460;17.908;2024-01-27T08:25:35;3.17;;;1.17;;
12120;SDS011;6124;59.460;17.908;2024-01-27T08:28:04;2.87;;;1.10;;
12120;SDS011;6124;59.460;17.908;2024-01-27T08:30:32;3.10;;;1.77;;
12120;SDS011;6124;59.460;17.908;2024-01-27T08:33:00;5.73;;;1.50;;
12120;SDS011;6124;59.460;17.908;2024-01-27T08:35:27;4.00;;;1.50;;
12120;SDS011;6124;59.460;17.908;2024-01-27T08:37:55;2.70;;;1.20;;
12120;SDS011;6124;59.460;17.908;2024-01-27T08:40:22;3.70;;;1.50;;
12120;SDS011;6124;59.460;17.908;2024-01-27T08:42:49;4.13;;;1.50;;
12120;SDS011;6124;59.460;17.908;2024-01-27T08:45:18;4.23;;;1.53;;
12120;SDS011;6124;59.460;17.908;2024-01-27T08:47:46;4.50;;;1.63;;
12120;SDS011;6124;59.460;17.908;2024-01-27T08:50:13;4.17;;;1.43;;
12120;SDS011;6124;59.460;17.908;2024-01-27T08:52:40;4.20;;;1.50;;
12120;SDS011;6124;59.460;17.908;2024-01-27T08:55:08;3.93;;;1.30;;
12120;SDS011;6124;59.460;17.908;2024-01-27T08:57:35;5.10;;;1.60;;
12120;SDS011;6124;59.460;17.908;2024-01-27T09:00:03;5.87;;;1.63;;
12120;SDS011;6124;59.460;17.908;2024-01-27T09:02:32;5.43;;;2.30;;
12120;SDS011;6124;59.460;17.908;2024-01-27T09:04:59;3.20;;;1.60;;
12120;SDS011;6124;59.460;17.908;2024-01-27T09:07:28;5.63;;;1.30;;
12120;SDS011;6124;59.460;17.908;2024-01-27T09:09:55;3.43;;;1.30;;
12120;SDS011;6124;59.460;17.908;2024-01-27T09:12:22;6.93;;;1.57;;
12120;SDS011;6124;59.460;17.908;2024-01-27T09:14:50;4.13;;;1.40;;
12120;SDS011;6124;59.460;17.908;2024-01-27T09:17:19;3.73;;;1.30;;
12120;SDS011;6124;59.460;17.908;2024-01-27T09:19:48;2.87;;;1.30;;
12120;SDS011;6124;59.460;17.908;2024-01-27T09:22:16;3.43;;;1.40;;
12120;SDS011;6124;59.460;17.908;2024-01-27T09:24:43;5.43;;;1.40;;
12120;SDS011;6124;59.460;17.908;2024-01-27T09:27:11;4.37;;;1.63;;
12120;SDS011;6124;59.460;17.908;2024-01-27T09:29:38;3.90;;;1.60;;
12120;SDS011;6124;59.460;17.908;2024-01-27T09:32:06;5.87;;;1.53;;
12120;SDS011;6124;59.460;17.908;2024-01-27T09:34:34;5.80;;;2.17;;
12120;SDS011;6124;59.460;17.908;2024-01-27T09:37:03;3.23;;;1.70;;
12120;SDS011;6124;59.460;17.908;2024-01-27T09:39:31;7.30;;;1.70;;
12120;SDS011;6124;59.460;17.908;2024-01-27T09:41:58;6.90;;;1.70;;
12120;SDS011;6124;59.460;17.908;2024-01-27T09:44:28;9.17;;;2.17;;
12120;SDS011;6124;59.460;17.908;2024-01-27T09:46:55;5.90;;;1.57;;
12120;SDS011;6124;59.460;17.908;2024-01-27T09:49:23;5.23;;;1.50;;
12120;SDS011;6124;59.460;17.908;2024-01-27T09:51:52;7.20;;;1.50;;
12120;SDS011;6124;59.460;17.908;2024-01-27T09:54:22;4.07;;;1.53;;
12120;SDS011;6124;59.460;17.908;2024-01-27T09:56:50;6.60;;;1.77;;
12120;SDS011;6124;59.460;17.908;2024-01-27T09:59:18;2.77;;;1.30;;
12120;SDS011;6124;59.460;17.908;2024-01-27T10:01:47;4.27;;;1.70;;
12120;SDS011;6124;59.460;17.908;2024-01-27T10:04:16;4.23;;;2.00;;
12120;SDS011;6124;59.460;17.908;2024-01-27T10:06:44;7.90;;;1.60;;
12120;SDS011;6124;59.460;17.908;2024-01-27T10:09:13;4.70;;;1.60;;
12120;SDS011;6124;59.460;17.908;2024-01-27T10:11:45;4.93;;;1.40;;
12120;SDS011;6124;59.460;17.908;2024-01-27T10:14:12;5.03;;;1.40;;
12120;SDS011;6124;59.460;17.908;2024-01-27T10:16:41;4.20;;;1.70;;
12120;SDS011;6124;59.460;17.908;2024-01-27T10:19:11;6.90;;;1.73;;
12120;SDS011;6124;59.460;17.908;2024-01-27T10:21:39;4.63;;;1.60;;
12120;SDS011;6124;59.460;17.908;2024-01-27T10:24:07;3.37;;;1.50;;
12120;SDS011;6124;59.460;17.908;2024-01-27T10:26:34;7.90;;;1.70;;
12120;SDS011;6124;59.460;17.908;2024-01-27T10:29:03;3.80;;;1.40;;
12120;SDS011;6124;59.460;17.908;2024-01-27T10:31:31;6.50;;;1.47;;
12120;SDS011;6124;59.460;17.908;2024-01-27T10:33:57;8.20;;;2.60;;
12120;SDS011;6124;59.460;17.908;2024-01-27T10:36:26;4.17;;;1.30;;
12120;SDS011;6124;59.460;17.908;2024-01-27T10:38:54;4.87;;;1.40;;
12120;SDS011;6124;59.460;17.908;2024-01-27T10:41:22;7.97;;;2.10;;
12120;SDS011;6124;59.460;17.908;2024-01-27T10:43:51;6.70;;;1.90;;
12120;SDS011;6124;59.460;17.908;2024-01-27T10:46:21;4.77;;;1.60;;
12120;SDS011;6124;59.460;17.908;2024-01-27T10:48:49;4.40;;;1.63;;
12120;SDS011;6124;59.460;17.908;2024-01-27T10:51:18;3.70;;;1.13;;
12120;SDS011;6124;59.460;17.908;2024-01-27T10:53:49;6.17;;;1.77;;
12120;SDS011;6124;59.460;17.908;2024-01-27T10:56:18;8.47;;;1.60;;
12120;SDS011;6124;59.460;17.908;2024-01-27T10:58:46;4.57;;;1.70;;
12120;SDS011;6124;59.460;17.908;2024-01-27T11:01:15;4.77;;;1.47;;
12120;SDS011;6124;59.460;17.908;2024-01-27T11:03:46;9.47;;;1.80;;
12120;SDS011;6124;59.460;17.908;2024-01-27T11:06:14;7.30;;;1.53;;
12120;SDS011;6124;59.460;17.908;2024-01-27T11:08:41;8.20;;;2.00;;
12120;SDS011;6124;59.460;17.908;2024-01-27T11:11:09;6.03;;;1.40;;
12120;SDS011;6124;59.460;17.908;2024-01-27T11:13:37;5.43;;;1.50;;
12120;SDS011;6124;59.460;17.908;2024-01-27T11:16:05;5.73;;;1.70;;
12120;SDS011;6124;59.460;17.908;2024-01-27T11:18:32;6.53;;;1.87;;
12120;SDS011;6124;59.460;17.908;2024-01-27T11:21:01;5.47;;;1.40;;
12120;SDS011;6124;59.460;17.908;2024-01-27T11:23:32;1.93;;;1.17;;
12120;SDS011;6124;59.460;17.908;2024-01-27T11:26:04;6.03;;;1.50;;
12120;SDS011;6124;59.460;17.908;2024-01-27T11:28:31;4.80;;;1.57;;
12120;SDS011;6124;59.460;17.908;2024-01-27T11:31:02;6.67;;;1.60;;
12120;SDS011;6124;59.460;17.908;2024-01-27T11:33:30;2.90;;;1.60;;
12120;SDS011;6124;59.460;17.908;2024-01-27T11:36:02;5.43;;;1.83;;
12120;SDS011;6124;59.460;17.908;2024-01-27T11:38:30;3.83;;;1.80;;
12120;SDS011;6124;59.460;17.908;2024-01-27T11:40:57;3.83;;;1.43;;
12120;SDS011;6124;59.460;17.908;2024-01-27T11:43:25;5.40;;;1.70;;
12120;SDS011;6124;59.460;17.908;2024-01-27T11:45:55;9.03;;;1.77;;
12120;SDS011;6124;59.460;17.908;2024-01-27T11:48:23;5.93;;;1.60;;
12120;SDS011;6124;59.460;17.908;2024-01-27T11:51:02;7.13;;;1.63;;
12120;SDS011;6124;59.460;17.908;2024-01-27T11:53:31;6.00;;;1.70;;
12120;SDS011;6124;59.460;17.908;2024-01-27T11:55:58;4.43;;;1.53;;
12120;SDS011;6124;59.460;17.908;2024-01-27T11:58:27;4.63;;;1.50;;
12120;SDS011;6124;59.460;17.908;2024-01-27T12:00:55;5.30;;;1.70;;
12120;SDS011;6124;59.460;17.908;2024-01-27T12:03:23;7.67;;;2.27;;
12120;SDS011;6124;59.460;17.908;2024-01-27T12:05:51;6.57;;;1.80;;
12120;SDS011;6124;59.460;17.908;2024-01-27T12:08:19;4.10;;;2.07;;
12120;SDS011;6124;59.460;17.908;2024-01-27T12:10:47;2.97;;;1.47;;
12120;SDS011;6124;59.460;17.908;2024-01-27T12:13:15;4.77;;;1.73;;
12120;SDS011;6124;59.460;17.908;2024-01-27T12:15:42;7.13;;;1.80;;
12120;SDS011;6124;59.460;17.908;2024-01-27T12:18:10;6.87;;;2.00;;
12120;SDS011;6124;59.460;17.908;2024-01-27T12:20:38;7.00;;;1.90;;
12120;SDS011;6124;59.460;17.908;2024-01-27T12:23:06;10.47;;;3.03;;
12120;SDS011;6124;59.460;17.908;2024-01-27T12:25:35;5.90;;;1.73;;
12120;SDS011;6124;59.460;17.908;2024-01-27T12:28:02;6.43;;;2.17;;
12120;SDS011;6124;59.460;17.908;2024-01-27T12:30:31;4.97;;;2.13;;
12120;SDS011;6124;59.460;17.908;2024-01-27T12:32:59;5.93;;;1.80;;
12120;SDS011;6124;59.460;17.908;2024-01-27T12:35:27;4.93;;;1.87;;
12120;SDS011;6124;59.460;17.908;2024-01-27T12:37:55;7.73;;;1.70;;
12120;SDS011;6124;59.460;17.908;2024-01-27T12:40:23;4.43;;;1.60;;
12120;SDS011;6124;59.460;17.908;2024-01-27T12:42:52;11.53;;;1.90;;
12120;SDS011;6124;59.460;17.908;2024-01-27T12:45:19;6.43;;;1.70;;
12120;SDS011;6124;59.460;17.908;2024-01-27T12:47:47;5.67;;;1.80;;
12120;SDS011;6124;59.460;17.908;2024-01-27T12:50:15;8.27;;;1.90;;
12120;SDS011;6124;59.460;17.908;2024-01-27T12:52:42;5.33;;;1.60;;
12120;SDS011;6124;59.460;17.908;2024-01-27T12:55:10;6.17;;;1.83;;
12120;SDS011;6124;59.460;17.908;2024-01-27T12:57:37;9.43;;;1.70;;
12120;SDS011;6124;59.460;17.908;2024-01-27T13:00:07;4.97;;;1.80;;
12120;SDS011;6124;59.460;17.908;2024-01-27T13:02:36;4.37;;;1.90;;
12120;SDS011;6124;59.460;17.908;2024-01-27T13:05:04;3.87;;;1.73;;
12120;SDS011;6124;59.460;17.908;2024-01-27T13:07:31;6.97;;;2.07;;
12120;SDS011;6124;59.460;17.908;2024-01-27T13:09:59;6.87;;;2.17;;
12120;SDS011;6124;59.460;17.908;2024-01-27T13:12:26;5.70;;;2.27;;
12120;SDS011;6124;59.460;17.908;2024-01-27T13:14:54;5.20;;;1.73;;
12120;SDS011;6124;59.460;17.908;2024-01-27T13:17:23;5.83;;;1.87;;
12120;SDS011;6124;59.460;17.908;2024-01-27T13:19:51;4.93;;;1.87;;
12120;SDS011;6124;59.460;17.908;2024-01-27T13:22:18;8.17;;;2.10;;
12120;SDS011;6124;59.460;17.908;2024-01-27T13:24:49;8.07;;;1.90;;
12120;SDS011;6124;59.460;17.908;2024-01-27T13:27:16;7.80;;;2.43;;
12120;SDS011;6124;59.460;17.908;2024-01-27T13:29:44;5.57;;;1.70;;
12120;SDS011;6124;59.460;17.908;2024-01-27T13:32:11;10.17;;;1.90;;
12120;SDS011;6124;59.460;17.908;2024-01-27T13:34:41;5.80;;;1.97;;
12120;SDS011;6124;59.460;17.908;2024-01-27T13:37:08;3.27;;;1.60;;
12120;SDS011;6124;59.460;17.908;2024-01-27T13:39:36;8.63;;;1.90;;
12120;SDS011;6124;59.460;17.908;2024-01-27T13:42:04;5.73;;;2.03;;
12120;SDS011;6124;59.460;17.908;2024-01-27T13:44:31;5.20;;;1.80;;
12120;SDS011;6124;59.460;17.908;2024-01-27T13:47:01;6.43;;;1.90;;
12120;SDS011;6124;59.460;17.908;2024-01-27T13:49:29;6.87;;;2.20;;
12120;SDS011;6124;59.460;17.908;2024-01-27T13:51:58;7.00;;;2.20;;
12120;SDS011;6124;59.460;17.908;2024-01-27T13:54:26;4.00;;;1.80;;
12120;SDS011;6124;59.460;17.908;2024-01-27T13:56:54;8.50;;;2.27;;
12120;SDS011;6124;59.460;17.908;2024-01-27T13:59:21;3.43;;;1.67;;
12120;SDS011;6124;59.460;17.908;2024-01-27T14:01:49;9.63;;;2.50;;
12120;SDS011;6124;59.460;17.908;2024-01-27T14:04:18;5.63;;;2.20;;
12120;SDS011;6124;59.460;17.908;2024-01-27T14:06:45;7.60;;;1.97;;
12120;SDS011;6124;59.460;17.908;2024-01-27T14:09:15;9.07;;;2.00;;
12120;SDS011;6124;59.460;17.908;2024-01-27T14:11:43;4.97;;;2.00;;
12120;SDS011;6124;59.460;17.908;2024-01-27T14:14:10;7.50;;;2.23;;
12120;SDS011;6124;59.460;17.908;2024-01-27T14:16:37;5.30;;;2.10;;
12120;SDS011;6124;59.460;17.908;2024-01-27T14:19:06;8.70;;;2.87;;
12120;SDS011;6124;59.460;17.908;2024-01-27T14:21:34;8.37;;;2.10;;
12120;SDS011;6124;59.460;17.908;2024-01-27T14:24:03;6.37;;;1.90;;
12120;SDS011;6124;59.460;17.908;2024-01-27T14:26:33;6.47;;;2.23;;
12120;SDS011;6124;59.460;17.908;2024-01-27T14:29:00;6.80;;;2.10;;
12120;SDS011;6124;59.460;17.908;2024-01-27T14:31:28;8.77;;;2.20;;
12120;SDS011;6124;59.460;17.908;2024-01-27T14:33:55;10.73;;;2.93;;
12120;SDS011;6124;59.460;17.908;2024-01-27T14:36:23;5.30;;;2.10;;
12120;SDS011;6124;59.460;17.908;2024-01-27T14:38:51;6.63;;;2.07;;
12120;SDS011;6124;59.460;17.908;2024-01-27T14:41:19;10.83;;;2.27;;
12120;SDS011;6124;59.460;17.908;2024-01-27T14:43:50;7.60;;;2.90;;
12120;SDS011;6124;59.460;17.908;2024-01-27T14:46:18;9.87;;;2.70;;
12120;SDS011;6124;59.460;17.908;2024-01-27T14:48:45;9.27;;;2.30;;
12120;SDS011;6124;59.460;17.908;2024-01-27T14:51:13;6.63;;;2.47;;